Terminal Aerodrome Forecast
Issued by NWS

Home | Current Version | Previous Version | Text Only | Print | Product List | Glossary On
Versions: 1 2 3 4 5 6 7 8 9 10 11 12 13 14 15 16
147
FTAK31 PAJN 281126 CCA
TAFAJN
TAF COR
PAJN 281126Z 2812/2912 08005KT P6SM FEW080 BKN100 WS020/02030KT
     FM281900 24009KT P6SM SCT100
     FM290600 08004KT P6SM BKN100=

USA.gov is the U.S. government's official web portal to all federal, state and local government web resources and services.